Aviation Digital Data Service (ADDS)

Output produced by METARs form (1548 UTC 24 September 2017)
found at http://www.aviationweather.gov/adds/metars/
 
KCXY 241456Z 32004KT 10SM CLR 28/17 A3013 RMK AO2 SLP201 T02780172 58003
KCXY 241356Z 35005KT 10SM CLR 26/16 A3013 RMK AO2 SLP203 T02610161
KCXY 241256Z 26004KT 10SM CLR 22/16 A3014 RMK AO2 SLP205 T02220161
KCXY 241156Z 26003KT 10SM CLR 18/15 A3013 RMK AO2 SLP203 T01830150 10183 20161 51013
KCXY 241056Z 26004KT 10SM CLR 16/14 A3013 RMK AO2 SLP201 T01610139
KCXY 240956Z AUTO 00000KT 10SM CLR 17/14 A3011 RMK AO2 SLP195 T01670139
KCXY 240856Z AUTO 00000KT 10SM CLR 17/14 A3010 RMK AO2 SLP189 T01720144 53004
KCXY 240756Z AUTO 28004KT 10SM CLR 18/14 A3009 RMK AO2 SLP187 T01780144
KCXY 240656Z AUTO 25003KT 10SM CLR 17/14 A3009 RMK AO2 SLP187 T01720144
KCXY 240556Z AUTO 25003KT 10SM CLR 18/15 A3008 RMK AO2 SLP185 T01780150 10222 20178 56002
KCXY 240456Z AUTO 00000KT 10SM CLR 18/15 A3009 RMK AO2 SLP187 T01830150 403060144
KCXY 240356Z AUTO 00000KT 10SM CLR 19/16 A3009 RMK AO2 SLP187 T01890156
KCXY 240256Z AUTO 23004KT 10SM CLR 19/15 A3009 RMK AO2 SLP189 T01890150 51006
KCXY 240156Z AUTO 00000KT 10SM CLR 20/15 A3009 RMK AO2 SLP188 T02000150
KCXY 240056Z 25004KT 10SM CLR 21/15 A3008 RMK AO2 SLP187 T02060150
KCXY 232356Z 23004KT 9SM CLR 22/16 A3007 RMK AO2 SLP182 T02220156 10306 20222 53006
KCXY 232256Z 24004KT 10SM CLR 25/16 A3006 RMK AO2 SLP178 T02500156
KCXY 232156Z 35005KT 10SM CLR 30/12 A3006 RMK AO2 SLP177 T03000117
KCXY 232056Z 33006KT 10SM CLR 31/11 A3005 RMK AO2 SLP176 T03060106 56013
KCXY 231956Z 34006KT 10SM CLR 31/10 A3006 RMK AO2 SLP178 T03060100
KCXY 231856Z 33010KT 10SM CLR 30/09 A3007 RMK AO2 SLP183 T03000089
KCXY 231756Z 33008KT 10SM CLR 29/11 A3009 RMK AO2 SLP188 T02940106 10294 20178 58011
KCXY 231656Z 32009KT 10SM CLR 28/11 A3010 RMK AO2 SLP194 T02780106
KCXY 231556Z 33008KT 10SM CLR 26/11 A3012 RMK AO2 SLP197 T02610111
KCXY 231456Z 31005KT 10SM CLR 25/12 A3012 RMK AO2 SLP199 T02500117 50006
KCXY 231356Z 32007KT 10SM CLR 23/12 A3013 RMK AO2 SLP203 T02280122
KCXY 231256Z 28004KT 10SM CLR 19/13 A3012 RMK AO2 SLP199 T01940133
KCXY 231156Z 31005KT 10SM CLR 18/12 A3010 RMK AO2 SLP193 T01830122 10183 20144 53017
KCXY 231056Z 28003KT 10SM CLR 16/12 A3008 RMK AO2 SLP184 T01560122
KCXY 230956Z AUTO 27003KT 10SM CLR 15/12 A3007 RMK AO2 SLP183 T01500122
KCXY 230856Z AUTO 24004KT 10SM CLR 15/12 A3005 RMK AO2 SLP176 T01500122 56002
KCXY 230756Z AUTO 26004KT 10SM CLR 16/13 A3006 RMK AO2 SLP178 T01560128
KCXY 230656Z AUTO 24004KT 10SM CLR 16/13 A3005 RMK AO2 SLP175 T01560128
KCXY 230456Z AUTO 24003KT 10SM CLR 16/13 A3005 RMK AO2 SLP175 T01610133 402940156
KCXY 230356Z AUTO 27003KT 10SM CLR 17/13 A3005 RMK AO2 SLP175 T01670133